sensor_id;sensor_type;location;lat;lon;timestamp;pressure;altitude;pressure_sealevel;temperature;humidity
44351;BME280;62766;62.622;17.912;2023-04-01T00:00:09;100755.08;;;-2.48;41.80
44351;BME280;62766;62.622;17.912;2023-04-01T00:02:38;100756.78;;;-2.32;41.91
44351;BME280;62766;62.622;17.912;2023-04-01T00:05:08;100762.76;;;-2.56;41.81
44351;BME280;62766;62.622;17.912;2023-04-01T00:07:38;100766.72;;;-2.48;42.00
44351;BME280;62766;62.622;17.912;2023-04-01T00:10:09;100771.52;;;-2.65;42.44
44351;BME280;62766;62.622;17.912;2023-04-01T00:12:39;100770.75;;;-2.70;42.84
44351;BME280;62766;62.622;17.912;2023-04-01T00:15:10;100774.84;;;-2.68;43.05
44351;BME280;62766;62.622;17.912;2023-04-01T00:17:39;100777.48;;;-2.63;42.71
44351;BME280;62766;62.622;17.912;2023-04-01T00:20:09;100776.39;;;-2.77;42.81
44351;BME280;62766;62.622;17.912;2023-04-01T00:22:38;100780.52;;;-2.73;42.77
44351;BME280;62766;62.622;17.912;2023-04-01T00:25:08;100780.56;;;-2.63;42.78
44351;BME280;62766;62.622;17.912;2023-04-01T00:27:37;100782.77;;;-2.79;42.65
44351;BME280;62766;62.622;17.912;2023-04-01T00:30:07;100787.06;;;-2.70;43.03
44351;BME280;62766;62.622;17.912;2023-04-01T00:32:36;100787.71;;;-2.81;43.00
44351;BME280;62766;62.622;17.912;2023-04-01T00:35:05;100788.63;;;-2.77;43.20
44351;BME280;62766;62.622;17.912;2023-04-01T00:37:36;100791.60;;;-2.75;43.27
44351;BME280;62766;62.622;17.912;2023-04-01T00:40:10;100792.94;;;-2.68;43.51
44351;BME280;62766;62.622;17.912;2023-04-01T00:42:49;100793.96;;;-2.45;43.25
44351;BME280;62766;62.622;17.912;2023-04-01T00:45:30;100794.05;;;-2.41;43.35
44351;BME280;62766;62.622;17.912;2023-04-01T00:48:02;100796.67;;;-2.39;43.57
44351;BME280;62766;62.622;17.912;2023-04-01T00:50:34;100796.33;;;-2.21;43.53
44351;BME280;62766;62.622;17.912;2023-04-01T00:53:05;100802.15;;;-2.30;43.37
44351;BME280;62766;62.622;17.912;2023-04-01T00:55:37;100804.49;;;-2.26;43.41
44351;BME280;62766;62.622;17.912;2023-04-01T00:58:13;100810.67;;;-2.23;43.10
44351;BME280;62766;62.622;17.912;2023-04-01T01:00:43;100809.29;;;-2.12;43.10
44351;BME280;62766;62.622;17.912;2023-04-01T01:03:13;100815.37;;;-2.08;42.97
44351;BME280;62766;62.622;17.912;2023-04-01T01:05:56;100817.52;;;-1.92;42.81
44351;BME280;62766;62.622;17.912;2023-04-01T01:08:35;100818.16;;;-1.96;42.92
44351;BME280;62766;62.622;17.912;2023-04-01T01:11:09;100813.08;;;-1.84;43.01
44351;BME280;62766;62.622;17.912;2023-04-01T01:13:43;100817.44;;;-1.90;43.08
44351;BME280;62766;62.622;17.912;2023-04-01T01:16:20;100822.11;;;-1.86;42.87
44351;BME280;62766;62.622;17.912;2023-04-01T01:18:57;100824.46;;;-2.07;42.74
44351;BME280;62766;62.622;17.912;2023-04-01T01:21:45;100822.39;;;-2.00;42.80
44351;BME280;62766;62.622;17.912;2023-04-01T01:24:41;100827.13;;;-1.83;42.76
44351;BME280;62766;62.622;17.912;2023-04-01T01:27:13;100831.80;;;-1.77;42.81
44351;BME280;62766;62.622;17.912;2023-04-01T01:29:57;100834.70;;;-2.04;42.91
44351;BME280;62766;62.622;17.912;2023-04-01T01:32:43;100837.69;;;-1.99;42.71
44351;BME280;62766;62.622;17.912;2023-04-01T01:35:22;100841.58;;;-1.98;42.77
44351;BME280;62766;62.622;17.912;2023-04-01T01:37:54;100849.10;;;-1.85;42.78
44351;BME280;62766;62.622;17.912;2023-04-01T01:40:24;100852.83;;;-1.97;42.61
44351;BME280;62766;62.622;17.912;2023-04-01T01:42:56;100854.34;;;-1.95;42.80
44351;BME280;62766;62.622;17.912;2023-04-01T01:45:27;100855.15;;;-1.85;42.84
44351;BME280;62766;62.622;17.912;2023-04-01T01:47:57;100858.76;;;-2.03;42.83
44351;BME280;62766;62.622;17.912;2023-04-01T01:50:27;100858.90;;;-2.08;42.85
44351;BME280;62766;62.622;17.912;2023-04-01T01:53:04;100864.67;;;-2.16;42.88
44351;BME280;62766;62.622;17.912;2023-04-01T01:55:34;100870.43;;;-2.12;43.10
44351;BME280;62766;62.622;17.912;2023-04-01T01:58:09;100874.03;;;-2.19;43.27
44351;BME280;62766;62.622;17.912;2023-04-01T02:00:41;100878.78;;;-2.11;43.31
44351;BME280;62766;62.622;17.912;2023-04-01T02:03:12;100883.28;;;-2.22;43.37
44351;BME280;62766;62.622;17.912;2023-04-01T02:05:41;100884.85;;;-2.31;43.44
44351;BME280;62766;62.622;17.912;2023-04-01T02:08:12;100887.34;;;-2.27;43.29
44351;BME280;62766;62.622;17.912;2023-04-01T02:10:44;100889.37;;;-2.24;43.53
44351;BME280;62766;62.622;17.912;2023-04-01T02:13:19;100896.13;;;-2.24;43.48
44351;BME280;62766;62.622;17.912;2023-04-01T02:15:55;100903.22;;;-2.26;43.45
44351;BME280;62766;62.622;17.912;2023-04-01T02:18:25;100904.86;;;-2.15;43.31
44351;BME280;62766;62.622;17.912;2023-04-01T02:20:53;100905.81;;;-2.17;43.18
44351;BME280;62766;62.622;17.912;2023-04-01T02:23:22;100908.40;;;-2.18;43.13
44351;BME280;62766;62.622;17.912;2023-04-01T02:25:50;100906.02;;;-2.25;43.08
44351;BME280;62766;62.622;17.912;2023-04-01T02:28:20;100912.22;;;-2.17;43.02
44351;BME280;62766;62.622;17.912;2023-04-01T02:30:49;100914.02;;;-2.20;42.65
44351;BME280;62766;62.622;17.912;2023-04-01T02:33:19;100917.70;;;-2.35;42.65
44351;BME280;62766;62.622;17.912;2023-04-01T02:35:48;100919.21;;;-2.41;42.68
44351;BME280;62766;62.622;17.912;2023-04-01T02:38:17;100915.00;;;-2.44;42.67
44351;BME280;62766;62.622;17.912;2023-04-01T02:40:48;100918.19;;;-2.59;42.95
44351;BME280;62766;62.622;17.912;2023-04-01T02:43:17;100923.40;;;-2.69;43.01
44351;BME280;62766;62.622;17.912;2023-04-01T02:45:46;100920.39;;;-2.75;43.01
44351;BME280;62766;62.622;17.912;2023-04-01T02:48:15;100924.78;;;-2.86;43.38
44351;BME280;62766;62.622;17.912;2023-04-01T02:50:43;100930.31;;;-2.77;43.48
44351;BME280;62766;62.622;17.912;2023-04-01T02:53:12;100932.12;;;-2.96;43.44
44351;BME280;62766;62.622;17.912;2023-04-01T02:55:41;100937.54;;;-2.92;43.83
44351;BME280;62766;62.622;17.912;2023-04-01T02:58:09;100941.30;;;-2.90;43.78
44351;BME280;62766;62.622;17.912;2023-04-01T03:00:38;100949.46;;;-2.98;43.54
44351;BME280;62766;62.622;17.912;2023-04-01T03:03:08;100953.48;;;-2.93;43.49
44351;BME280;62766;62.622;17.912;2023-04-01T03:05:39;100961.74;;;-2.92;43.52
44351;BME280;62766;62.622;17.912;2023-04-01T03:08:08;100962.47;;;-2.99;43.98
44351;BME280;62766;62.622;17.912;2023-04-01T03:10:37;100964.06;;;-3.06;44.39
44351;BME280;62766;62.622;17.912;2023-04-01T03:13:07;100967.95;;;-3.04;44.42
44351;BME280;62766;62.622;17.912;2023-04-01T03:15:36;100969.59;;;-3.11;44.57
44351;BME280;62766;62.622;17.912;2023-04-01T03:18:05;100968.98;;;-3.11;44.63
44351;BME280;62766;62.622;17.912;2023-04-01T03:20:33;100977.01;;;-3.22;44.80
44351;BME280;62766;62.622;17.912;2023-04-01T03:23:02;100976.49;;;-3.24;44.83
44351;BME280;62766;62.622;17.912;2023-04-01T03:25:31;100979.58;;;-3.19;44.96
44351;BME280;62766;62.622;17.912;2023-04-01T03:27:59;100979.62;;;-3.25;44.87
44351;BME280;62766;62.622;17.912;2023-04-01T03:30:28;100978.21;;;-3.13;45.16
44351;BME280;62766;62.622;17.912;2023-04-01T03:32:57;100983.98;;;-3.05;44.99
44351;BME280;62766;62.622;17.912;2023-04-01T03:35:25;100983.64;;;-2.90;44.89
44351;BME280;62766;62.622;17.912;2023-04-01T03:37:54;100985.98;;;-2.81;44.84
44351;BME280;62766;62.622;17.912;2023-04-01T03:40:23;100986.77;;;-2.69;44.49
44351;BME280;62766;62.622;17.912;2023-04-01T03:42:51;100991.39;;;-2.77;44.18
44351;BME280;62766;62.622;17.912;2023-04-01T03:45:19;100992.47;;;-2.91;44.18
44351;BME280;62766;62.622;17.912;2023-04-01T03:47:48;100999.75;;;-2.82;44.40
44351;BME280;62766;62.622;17.912;2023-04-01T03:50:16;100997.77;;;-2.85;44.45
44351;BME280;62766;62.622;17.912;2023-04-01T03:52:45;101009.53;;;-2.92;44.31
44351;BME280;62766;62.622;17.912;2023-04-01T03:55:14;101009.21;;;-2.88;44.03
44351;BME280;62766;62.622;17.912;2023-04-01T03:57:42;101008.75;;;-2.93;43.96
44351;BME280;62766;62.622;17.912;2023-04-01T04:03:21;101022.23;;;-3.30;44.51
44351;BME280;62766;62.622;17.912;2023-04-01T04:05:51;101025.43;;;-3.35;44.46
44351;BME280;62766;62.622;17.912;2023-04-01T04:08:20;101027.73;;;-3.35;44.59
44351;BME280;62766;62.622;17.912;2023-04-01T04:10:54;101028.07;;;-3.48;44.65
44351;BME280;62766;62.622;17.912;2023-04-01T04:13:22;101037.18;;;-3.50;44.69
44351;BME280;62766;62.622;17.912;2023-04-01T04:15:51;101041.84;;;-3.47;44.81
44351;BME280;62766;62.622;17.912;2023-04-01T04:18:20;101045.56;;;-3.51;44.55
44351;BME280;62766;62.622;17.912;2023-04-01T04:20:48;101046.26;;;-3.43;44.50
44351;BME280;62766;62.622;17.912;2023-04-01T04:23:18;101052.87;;;-3.52;44.57
44351;BME280;62766;62.622;17.912;2023-04-01T04:25:54;101049.53;;;-3.32;44.98
44351;BME280;62766;62.622;17.912;2023-04-01T04:28:24;101051.15;;;-3.38;44.94
44351;BME280;62766;62.622;17.912;2023-04-01T04:30:52;101052.38;;;-3.22;45.21
44351;BME280;62766;62.622;17.912;2023-04-01T04:33:20;101059.41;;;-3.14;45.37
44351;BME280;62766;62.622;17.912;2023-04-01T04:35:49;101060.94;;;-3.17;44.87
44351;BME280;62766;62.622;17.912;2023-04-01T04:38:18;101064.65;;;-2.96;44.63
44351;BME280;62766;62.622;17.912;2023-04-01T04:40:48;101066.68;;;-2.99;44.25
44351;BME280;62766;62.622;17.912;2023-04-01T04:43:18;101066.52;;;-2.95;44.13
44351;BME280;62766;62.622;17.912;2023-04-01T04:45:47;101071.08;;;-2.90;43.99
44351;BME280;62766;62.622;17.912;2023-04-01T04:48:16;101069.53;;;-2.84;43.99
44351;BME280;62766;62.622;17.912;2023-04-01T04:50:44;101073.41;;;-2.83;44.22
44351;BME280;62766;62.622;17.912;2023-04-01T04:53:14;101080.96;;;-2.66;44.22
44351;BME280;62766;62.622;17.912;2023-04-01T04:55:43;101080.82;;;-2.63;44.03
44351;BME280;62766;62.622;17.912;2023-04-01T04:58:12;101081.40;;;-2.55;43.84
44351;BME280;62766;62.622;17.912;2023-04-01T05:00:41;101082.26;;;-2.62;43.77
44351;BME280;62766;62.622;17.912;2023-04-01T05:03:10;101083.15;;;-2.49;43.62
44351;BME280;62766;62.622;17.912;2023-04-01T05:05:38;101084.79;;;-2.45;43.65
44351;BME280;62766;62.622;17.912;2023-04-01T05:08:07;101084.93;;;-2.27;43.77
44351;BME280;62766;62.622;17.912;2023-04-01T05:10:35;101087.06;;;-2.07;43.78
44351;BME280;62766;62.622;17.912;2023-04-01T05:13:04;101094.44;;;-2.08;43.68
44351;BME280;62766;62.622;17.912;2023-04-01T05:15:33;101095.25;;;-1.88;43.22
44351;BME280;62766;62.622;17.912;2023-04-01T05:18:01;101091.82;;;-1.82;43.29
44351;BME280;62766;62.622;17.912;2023-04-01T05:20:30;101094.04;;;-1.68;43.00
44351;BME280;62766;62.622;17.912;2023-04-01T05:22:59;101101.49;;;-1.59;42.81
44351;BME280;62766;62.622;17.912;2023-04-01T05:25:29;101104.43;;;-1.48;42.68
44351;BME280;62766;62.622;17.912;2023-04-01T05:27:57;101109.11;;;-1.33;42.44
44351;BME280;62766;62.622;17.912;2023-04-01T05:30:26;101108.81;;;-1.18;42.23
44351;BME280;62766;62.622;17.912;2023-04-01T05:32:54;101110.17;;;-1.13;42.04
44351;BME280;62766;62.622;17.912;2023-04-01T05:35:23;101111.81;;;-1.04;42.02
44351;BME280;62766;62.622;17.912;2023-04-01T05:37:51;101114.35;;;-0.98;42.07
44351;BME280;62766;62.622;17.912;2023-04-01T05:40:20;101115.90;;;-0.90;42.17
44351;BME280;62766;62.622;17.912;2023-04-01T05:42:49;101116.55;;;-0.93;41.79
44351;BME280;62766;62.622;17.912;2023-04-01T05:45:19;101117.84;;;-0.79;41.98
44351;BME280;62766;62.622;17.912;2023-04-01T05:47:49;101120.94;;;-0.63;41.82
44351;BME280;62766;62.622;17.912;2023-04-01T05:50:19;101119.85;;;-0.54;41.41
44351;BME280;62766;62.622;17.912;2023-04-01T05:52:47;101123.49;;;-0.60;41.44
44351;BME280;62766;62.622;17.912;2023-04-01T05:55:16;101122.97;;;-0.40;41.43
44351;BME280;62766;62.622;17.912;2023-04-01T05:57:45;101126.80;;;-0.51;40.98
44351;BME280;62766;62.622;17.912;2023-04-01T06:00:14;101128.16;;;-0.40;40.87
44351;BME280;62766;62.622;17.912;2023-04-01T06:02:43;101128.95;;;-0.21;40.94
44351;BME280;62766;62.622;17.912;2023-04-01T06:05:15;101133.08;;;-0.34;40.48
44351;BME280;62766;62.622;17.912;2023-04-01T06:07:46;101131.14;;;-0.18;40.39
44351;BME280;62766;62.622;17.912;2023-04-01T06:10:16;101130.26;;;-0.01;40.49
44351;BME280;62766;62.622;17.912;2023-04-01T06:12:53;101132.12;;;0.06;40.20
44351;BME280;62766;62.622;17.912;2023-04-01T06:15:32;101132.78;;;0.03;39.83
44351;BME280;62766;62.622;17.912;2023-04-01T06:18:28;101135.05;;;0.22;39.79
44351;BME280;62766;62.622;17.912;2023-04-01T06:21:13;101141.06;;;0.31;39.73
44351;BME280;62766;62.622;17.912;2023-04-01T06:23:56;101140.31;;;0.27;39.54
44351;BME280;62766;62.622;17.912;2023-04-01T06:26:35;101143.48;;;0.38;39.25
44351;BME280;62766;62.622;17.912;2023-04-01T06:29:49;101145.57;;;0.47;39.21
44351;BME280;62766;62.622;17.912;2023-04-01T06:32:42;101150.57;;;0.52;39.14
44351;BME280;62766;62.622;17.912;2023-04-01T06:35:29;101148.27;;;0.62;39.19
44351;BME280;62766;62.622;17.912;2023-04-01T06:38:17;101148.33;;;0.61;38.71
44351;BME280;62766;62.622;17.912;2023-04-01T06:41:06;101152.84;;;0.80;38.66
44351;BME280;62766;62.622;17.912;2023-04-01T06:43:49;101150.65;;;0.98;38.25
44351;BME280;62766;62.622;17.912;2023-04-01T06:46:26;101151.35;;;0.90;38.14
44351;BME280;62766;62.622;17.912;2023-04-01T06:49:19;101155.77;;;1.08;38.08
44351;BME280;62766;62.622;17.912;2023-04-01T06:51:56;101157.40;;;1.18;37.76
44351;BME280;62766;62.622;17.912;2023-04-01T06:54:30;101160.64;;;1.17;37.47
44351;BME280;62766;62.622;17.912;2023-04-01T06:57:03;101163.12;;;1.29;37.68
44351;BME280;62766;62.622;17.912;2023-04-01T06:59:37;101164.10;;;1.40;37.67
44351;BME280;62766;62.622;17.912;2023-04-01T07:02:19;101167.92;;;1.48;37.45
44351;BME280;62766;62.622;17.912;2023-04-01T07:04:54;101169.63;;;1.55;37.31
44351;BME280;62766;62.622;17.912;2023-04-01T07:07:31;101174.41;;;1.49;36.94
44351;BME280;62766;62.622;17.912;2023-04-01T07:10:06;101172.01;;;1.55;36.56
44351;BME280;62766;62.622;17.912;2023-04-01T07:12:44;101170.32;;;1.65;36.72
44351;BME280;62766;62.622;17.912;2023-04-01T07:15:19;101174.47;;;1.71;36.69
44351;BME280;62766;62.622;17.912;2023-04-01T07:17:52;101178.43;;;1.80;36.34
44351;BME280;62766;62.622;17.912;2023-04-01T07:20:25;101178.71;;;1.86;36.31
44351;BME280;62766;62.622;17.912;2023-04-01T07:22:58;101183.60;;;2.02;36.10
44351;BME280;62766;62.622;17.912;2023-04-01T07:25:29;101186.57;;;2.00;36.13
44351;BME280;62766;62.622;17.912;2023-04-01T07:28:02;101188.99;;;2.25;35.68
44351;BME280;62766;62.622;17.912;2023-04-01T07:30:43;101189.97;;;2.21;35.84
44351;BME280;62766;62.622;17.912;2023-04-01T07:33:19;101191.88;;;2.34;35.99
44351;BME280;62766;62.622;17.912;2023-04-01T07:35:54;101190.15;;;2.37;35.55
44351;BME280;62766;62.622;17.912;2023-04-01T07:38:32;101192.36;;;2.38;35.52
44351;BME280;62766;62.622;17.912;2023-04-01T07:41:07;101195.15;;;2.46;35.73
44351;BME280;62766;62.622;17.912;2023-04-01T07:43:52;101198.33;;;2.55;35.70
44351;BME280;62766;62.622;17.912;2023-04-01T07:46:39;101200.03;;;2.43;35.28
44351;BME280;62766;62.622;17.912;2023-04-01T07:49:15;101199.67;;;2.50;35.36
44351;BME280;62766;62.622;17.912;2023-04-01T07:51:52;101202.56;;;2.66;35.14
44351;BME280;62766;62.622;17.912;2023-04-01T07:54:29;101202.97;;;2.83;35.27
44351;BME280;62766;62.622;17.912;2023-04-01T07:57:03;101205.04;;;2.87;34.81
44351;BME280;62766;62.622;17.912;2023-04-01T07:59:41;101208.52;;;2.85;34.99
44351;BME280;62766;62.622;17.912;2023-04-01T08:02:21;101204.57;;;3.01;34.91
44351;BME280;62766;62.622;17.912;2023-04-01T08:05:03;101211.48;;;3.08;34.83
44351;BME280;62766;62.622;17.912;2023-04-01T08:07:39;101209.97;;;3.03;34.16
44351;BME280;62766;62.622;17.912;2023-04-01T08:10:14;101210.68;;;2.92;34.21
44351;BME280;62766;62.622;17.912;2023-04-01T08:12:52;101211.44;;;3.17;34.37
44351;BME280;62766;62.622;17.912;2023-04-01T08:15:28;101217.67;;;3.22;34.29
44351;BME280;62766;62.622;17.912;2023-04-01T08:18:08;101220.66;;;3.32;34.07
44351;BME280;62766;62.622;17.912;2023-04-01T08:20:44;101225.23;;;3.34;33.93
44351;BME280;62766;62.622;17.912;2023-04-01T08:23:18;101229.29;;;3.32;34.05
44351;BME280;62766;62.622;17.912;2023-04-01T08:25:52;101233.85;;;3.45;33.77
44351;BME280;62766;62.622;17.912;2023-04-01T08:28:27;101231.12;;;3.51;33.72
44351;BME280;62766;62.622;17.912;2023-04-01T08:31:01;101234.54;;;3.45;33.50
44351;BME280;62766;62.622;17.912;2023-04-01T08:33:33;101232.87;;;3.56;33.54
44351;BME280;62766;62.622;17.912;2023-04-01T08:36:05;101235.87;;;3.71;32.86
44351;BME280;62766;62.622;17.912;2023-04-01T08:38:40;101239.38;;;3.74;33.10
44351;BME280;62766;62.622;17.912;2023-04-01T08:41:27;101240.79;;;3.84;32.67
44351;BME280;62766;62.622;17.912;2023-04-01T08:44:20;101242.00;;;4.00;32.69
44351;BME280;62766;62.622;17.912;2023-04-01T08:47:30;101242.15;;;4.19;32.06
44351;BME280;62766;62.622;17.912;2023-04-01T08:50:23;101241.83;;;4.09;31.98
44351;BME280;62766;62.622;17.912;2023-04-01T08:53:00;101243.35;;;4.16;31.59
44351;BME280;62766;62.622;17.912;2023-04-01T08:55:38;101245.43;;;3.98;31.87
44351;BME280;62766;62.622;17.912;2023-04-01T08:58:27;101245.56;;;4.09;31.86
44351;BME280;62766;62.622;17.912;2023-04-01T09:01:13;101248.32;;;4.22;31.65
44351;BME280;62766;62.622;17.912;2023-04-01T09:03:58;101249.07;;;4.41;31.64
44351;BME280;62766;62.622;17.912;2023-04-01T09:06:39;101247.27;;;4.43;31.94
44351;BME280;62766;62.622;17.912;2023-04-01T09:09:37;101248.61;;;4.55;31.43
44351;BME280;62766;62.622;17.912;2023-04-01T09:12:26;101249.98;;;4.65;31.46
44351;BME280;62766;62.622;17.912;2023-04-01T09:15:16;101250.78;;;4.69;30.89
44351;BME280;62766;62.622;17.912;2023-04-01T09:18:06;101247.59;;;4.65;30.89
44351;BME280;62766;62.622;17.912;2023-04-01T09:20:46;101249.58;;;4.66;30.69
44351;BME280;62766;62.622;17.912;2023-04-01T09:23:31;101252.30;;;4.91;31.02
44351;BME280;62766;62.622;17.912;2023-04-01T09:26:15;101257.04;;;4.70;30.56
44351;BME280;62766;62.622;17.912;2023-04-01T09:28:57;101257.72;;;4.76;30.18
44351;BME280;62766;62.622;17.912;2023-04-01T09:31:50;101252.41;;;5.00;30.74
44351;BME280;62766;62.622;17.912;2023-04-01T09:34:31;101254.86;;;5.05;30.94
44351;BME280;62766;62.622;17.912;2023-04-01T09:37:19;101248.66;;;5.18;30.37
44351;BME280;62766;62.622;17.912;2023-04-01T09:40:02;101246.99;;;5.14;30.18
44351;BME280;62766;62.622;17.912;2023-04-01T09:42:43;101244.51;;;5.34;30.31
44351;BME280;62766;62.622;17.912;2023-04-01T09:45:23;101242.97;;;5.30;29.84
44351;BME280;62766;62.622;17.912;2023-04-01T09:48:02;101245.72;;;5.27;29.83
44351;BME280;62766;62.622;17.912;2023-04-01T09:50:38;101244.47;;;5.32;29.78
44351;BME280;62766;62.622;17.912;2023-04-01T09:53:30;101246.97;;;5.34;30.00
44351;BME280;62766;62.622;17.912;2023-04-01T09:56:52;101245.62;;;5.43;29.56
44351;BME280;62766;62.622;17.912;2023-04-01T09:59:56;101244.43;;;5.44;29.33
44351;BME280;62766;62.622;17.912;2023-04-01T10:03:58;101243.02;;;5.44;29.99
44351;BME280;62766;62.622;17.912;2023-04-01T10:06:47;101240.60;;;5.71;29.68
44351;BME280;62766;62.622;17.912;2023-04-01T10:10:47;101243.03;;;5.78;29.36
44351;BME280;62766;62.622;17.912;2023-04-01T10:13:59;101241.41;;;6.04;29.33
44351;BME280;62766;62.622;17.912;2023-04-01T10:16:52;101237.28;;;6.18;28.60
44351;BME280;62766;62.622;17.912;2023-04-01T10:19:50;101240.49;;;6.04;28.31
44351;BME280;62766;62.622;17.912;2023-04-01T10:22:50;101240.18;;;6.13;28.46
44351;BME280;62766;62.622;17.912;2023-04-01T10:26:45;101240.98;;;6.21;27.80
44351;BME280;62766;62.622;17.912;2023-04-01T10:30:05;101241.28;;;6.37;28.60
44351;BME280;62766;62.622;17.912;2023-04-01T10:33:06;101245.03;;;6.43;28.31
44351;BME280;62766;62.622;17.912;2023-04-01T10:36:00;101246.43;;;6.28;27.71
44351;BME280;62766;62.622;17.912;2023-04-01T10:38:54;101245.68;;;6.64;28.26
44351;BME280;62766;62.622;17.912;2023-04-01T10:41:47;101247.93;;;6.60;28.44
44351;BME280;62766;62.622;17.912;2023-04-01T10:44:48;101248.77;;;6.92;28.21
44351;BME280;62766;62.622;17.912;2023-04-01T10:48:00;101247.79;;;6.79;27.82
44351;BME280;62766;62.622;17.912;2023-04-01T10:50:53;101244.77;;;6.82;27.89
44351;BME280;62766;62.622;17.912;2023-04-01T10:53:37;101248.39;;;6.96;28.03
44351;BME280;62766;62.622;17.912;2023-04-01T10:56:32;101249.10;;;6.85;27.79
44351;BME280;62766;62.622;17.912;2023-04-01T11:08:47;101243.14;;;7.23;27.41
44351;BME280;62766;62.622;17.912;2023-04-01T11:12:39;101247.96;;;7.62;27.90
44351;BME280;62766;62.622;17.912;2023-04-01T11:15:45;101250.35;;;7.79;27.13
44351;BME280;62766;62.622;17.912;2023-04-01T11:23:31;101245.64;;;7.75;26.43
44351;BME280;62766;62.622;17.912;2023-04-01T11:26:06;101246.08;;;7.64;27.16
44351;BME280;62766;62.622;17.912;2023-04-01T11:28:48;101248.98;;;7.81;26.49
44351;BME280;62766;62.622;17.912;2023-04-01T11:31:32;101247.73;;;8.00;26.53
44351;BME280;62766;62.622;17.912;2023-04-01T11:34:15;101246.11;;;8.19;26.05
44351;BME280;62766;62.622;17.912;2023-04-01T11:36:53;101240.98;;;8.14;25.47
44351;BME280;62766;62.622;17.912;2023-04-01T11:39:33;101237.35;;;8.31;24.78
44351;BME280;62766;62.622;17.912;2023-04-01T11:42:17;101233.80;;;8.41;24.76
44351;BME280;62766;62.622;17.912;2023-04-01T11:44:53;101233.68;;;8.25;24.56
44351;BME280;62766;62.622;17.912;2023-04-01T11:47:47;101236.52;;;8.42;24.06
44351;BME280;62766;62.622;17.912;2023-04-01T11:50:26;101238.06;;;8.43;24.17
44351;BME280;62766;62.622;17.912;2023-04-01T11:53:09;101242.28;;;8.32;23.87
44351;BME280;62766;62.622;17.912;2023-04-01T11:55:50;101239.91;;;8.65;23.78
44351;BME280;62766;62.622;17.912;2023-04-01T11:58:41;101237.75;;;8.70;23.52
44351;BME280;62766;62.622;17.912;2023-04-01T12:01:28;101243.66;;;8.67;23.61
44351;BME280;62766;62.622;17.912;2023-04-01T12:04:47;101243.53;;;8.64;23.05
44351;BME280;62766;62.622;17.912;2023-04-01T12:07:40;101243.24;;;8.79;23.06
44351;BME280;62766;62.622;17.912;2023-04-01T12:10:18;101242.34;;;8.92;22.47
44351;BME280;62766;62.622;17.912;2023-04-01T12:12:54;101242.87;;;8.91;22.44
44351;BME280;62766;62.622;17.912;2023-04-01T12:15:34;101245.54;;;8.86;22.72
44351;BME280;62766;62.622;17.912;2023-04-01T12:18:14;101248.38;;;9.17;22.76
44351;BME280;62766;62.622;17.912;2023-04-01T12:20:49;101242.26;;;9.26;22.05
44351;BME280;62766;62.622;17.912;2023-04-01T12:28:19;101246.11;;;9.62;21.78
44351;BME280;62766;62.622;17.912;2023-04-01T12:30:58;101239.30;;;9.78;21.03
44351;BME280;62766;62.622;17.912;2023-04-01T12:33:48;101240.84;;;9.74;21.12
44351;BME280;62766;62.622;17.912;2023-04-01T12:36:31;101240.37;;;9.86;21.52
44351;BME280;62766;62.622;17.912;2023-04-01T12:39:18;101242.64;;;9.70;21.20
44351;BME280;62766;62.622;17.912;2023-04-01T12:41:54;101238.40;;;9.78;21.08
44351;BME280;62766;62.622;17.912;2023-04-01T12:44:37;101236.37;;;9.78;21.08
44351;BME280;62766;62.622;17.912;2023-04-01T12:48:28;101238.26;;;10.08;21.38
44351;BME280;62766;62.622;17.912;2023-04-01T12:51:48;101236.11;;;10.34;20.90
44351;BME280;62766;62.622;17.912;2023-04-01T12:54:38;101235.05;;;10.31;21.19
44351;BME280;62766;62.622;17.912;2023-04-01T12:57:24;101235.73;;;10.55;20.68
44351;BME280;62766;62.622;17.912;2023-04-01T13:00:09;101237.38;;;10.76;20.57
44351;BME280;62766;62.622;17.912;2023-04-01T13:02:55;101238.83;;;10.92;20.32
44351;BME280;62766;62.622;17.912;2023-04-01T13:06:00;101239.69;;;10.98;19.95
44351;BME280;62766;62.622;17.912;2023-04-01T13:08:40;101242.79;;;11.10;19.73
44351;BME280;62766;62.622;17.912;2023-04-01T13:11:19;101241.92;;;11.04;19.95
44351;BME280;62766;62.622;17.912;2023-04-01T13:14:12;101242.80;;;11.12;20.07
44351;BME280;62766;62.622;17.912;2023-04-01T13:16:50;101242.83;;;11.15;19.90
44351;BME280;62766;62.622;17.912;2023-04-01T13:19:27;101243.80;;;11.17;19.75
44351;BME280;62766;62.622;17.912;2023-04-01T13:22:04;101243.15;;;11.15;19.79
44351;BME280;62766;62.622;17.912;2023-04-01T13:24:42;101240.43;;;11.28;19.42
44351;BME280;62766;62.622;17.912;2023-04-01T13:27:18;101239.37;;;11.34;19.54
44351;BME280;62766;62.622;17.912;2023-04-01T13:30:01;101237.03;;;11.37;19.77
44351;BME280;62766;62.622;17.912;2023-04-01T13:32:37;101242.66;;;11.17;19.43
44351;BME280;62766;62.622;17.912;2023-04-01T13:35:23;101241.42;;;11.19;18.99
44351;BME280;62766;62.622;17.912;2023-04-01T13:38:09;101239.77;;;11.22;18.92
44351;BME280;62766;62.622;17.912;2023-04-01T13:40:48;101238.38;;;11.35;19.17
44351;BME280;62766;62.622;17.912;2023-04-01T13:43:22;101242.70;;;11.54;19.35
44351;BME280;62766;62.622;17.912;2023-04-01T13:46:12;101240.23;;;11.64;18.98
44351;BME280;62766;62.622;17.912;2023-04-01T13:48:54;101241.92;;;11.81;19.17
44351;BME280;62766;62.622;17.912;2023-04-01T13:52:00;101242.50;;;11.89;19.18
44351;BME280;62766;62.622;17.912;2023-04-01T13:54:52;101240.36;;;12.01;18.80
44351;BME280;62766;62.622;17.912;2023-04-01T13:57:52;101236.56;;;11.90;18.26
44351;BME280;62766;62.622;17.912;2023-04-01T14:00:37;101235.34;;;12.08;19.24
44351;BME280;62766;62.622;17.912;2023-04-01T14:03:27;101233.43;;;12.23;18.24
44351;BME280;62766;62.622;17.912;2023-04-01T14:06:06;101233.38;;;12.30;18.76
44351;BME280;62766;62.622;17.912;2023-04-01T14:08:54;101236.16;;;12.30;18.70